createdAt,value
2023-04-26T00:01:59.137Z,3.30
2023-04-26T00:04:26.012Z,3.07
2023-04-26T00:06:52.958Z,2.33
2023-04-26T00:09:20.006Z,2.30
2023-04-26T00:11:46.829Z,4.93
2023-04-26T00:14:13.864Z,2.70
2023-04-26T00:16:41.709Z,4.30
2023-04-26T00:19:10.751Z,3.50
2023-04-26T00:21:37.596Z,3.33
2023-04-26T00:24:05.910Z,2.63
2023-04-26T00:26:34.500Z,2.77
2023-04-26T00:29:03.174Z,3.47
2023-04-26T00:31:30.147Z,2.97
2023-04-26T00:33:56.859Z,3.73
2023-04-26T00:36:23.458Z,4.43
2023-04-26T00:38:50.528Z,1.83
2023-04-26T00:41:17.577Z,2.33
2023-04-26T00:43:45.329Z,2.10
2023-04-26T00:46:12.797Z,3.00
2023-04-26T00:48:39.697Z,2.57
2023-04-26T00:51:06.976Z,2.43
2023-04-26T00:53:35.605Z,2.57
2023-04-26T00:56:02.664Z,2.30
2023-04-26T00:58:30.195Z,3.97
2023-04-26T01:00:57.078Z,2.30
2023-04-26T01:03:24.294Z,2.40
2023-04-26T01:05:51.316Z,3.17
2023-04-26T01:08:21.059Z,3.47
2023-04-26T01:10:49.282Z,3.17
2023-04-26T01:13:16.684Z,2.57
2023-04-26T01:15:47.733Z,4.97
2023-04-26T01:18:15.231Z,2.07
2023-04-26T01:20:43.190Z,3.23
2023-04-26T01:23:10.708Z,4.27
2023-04-26T01:25:37.718Z,4.80
2023-04-26T01:28:04.535Z,2.03
2023-04-26T01:30:31.231Z,2.83
2023-04-26T01:32:58.059Z,2.40
2023-04-26T01:35:24.751Z,4.97
2023-04-26T01:37:51.387Z,3.73
2023-04-26T01:40:18.184Z,3.87
2023-04-26T01:42:44.830Z,5.40
2023-04-26T01:45:12.124Z,3.67
2023-04-26T01:47:39.033Z,4.60
2023-04-26T01:50:06.509Z,2.77
2023-04-26T01:52:33.132Z,4.70
2023-04-26T01:54:59.932Z,2.87
2023-04-26T01:57:26.611Z,3.37
2023-04-26T01:59:54.380Z,3.20
2023-04-26T02:02:21.280Z,2.40
2023-04-26T02:04:48.003Z,2.30
2023-04-26T02:07:14.676Z,2.00
2023-04-26T02:09:41.692Z,2.53
2023-04-26T02:12:08.686Z,3.37
2023-04-26T02:14:35.301Z,2.83
2023-04-26T02:17:02.181Z,3.67
2023-04-26T02:19:29.868Z,2.53
2023-04-26T02:21:58.278Z,4.03
2023-04-26T02:24:25.831Z,2.00
2023-04-26T02:26:54.815Z,2.57
2023-04-26T02:29:32.649Z,3.10
2023-04-26T02:32:08.959Z,2.40
2023-04-26T02:34:36.345Z,2.67
2023-04-26T02:37:03.152Z,2.63
2023-04-26T02:39:37.125Z,3.03
2023-04-26T02:42:04.058Z,3.60
2023-04-26T02:44:33.554Z,3.93
2023-04-26T02:47:00.342Z,3.20
2023-04-26T02:49:27.086Z,5.13
2023-04-26T02:51:53.960Z,2.70
2023-04-26T02:54:20.726Z,3.00
2023-04-26T02:56:47.387Z,4.53
2023-04-26T02:59:14.276Z,3.27
2023-04-26T03:01:41.208Z,4.80
2023-04-26T03:04:08.041Z,6.43
2023-04-26T03:06:36.072Z,2.27
2023-04-26T03:09:02.821Z,4.17
2023-04-26T03:11:29.505Z,3.00
2023-04-26T03:13:56.504Z,3.07
2023-04-26T03:16:24.127Z,2.47
2023-04-26T03:18:51.258Z,3.97
2023-04-26T03:21:18.181Z,2.30
2023-04-26T03:23:44.881Z,3.40
2023-04-26T03:26:11.618Z,4.57
2023-04-26T03:28:38.791Z,2.83
2023-04-26T03:31:05.570Z,2.80
2023-04-26T03:33:32.441Z,3.37
2023-04-26T03:35:59.239Z,2.23
2023-04-26T03:38:26.349Z,2.93
2023-04-26T03:40:53.028Z,3.27
2023-04-26T03:43:19.651Z,3.07
2023-04-26T03:45:49.229Z,2.40
2023-04-26T03:48:17.375Z,2.50
2023-04-26T03:50:46.941Z,2.57
2023-04-26T03:53:13.962Z,3.10
2023-04-26T03:55:40.702Z,2.97
2023-04-26T03:58:08.320Z,6.23
2023-04-26T04:00:37.912Z,2.93
2023-04-26T04:03:05.550Z,2.63
2023-04-26T04:05:32.746Z,3.33
2023-04-26T04:07:59.959Z,2.43
2023-04-26T04:10:26.671Z,3.00
2023-04-26T04:12:54.218Z,4.67
2023-04-26T04:15:21.675Z,2.50
2023-04-26T04:17:48.345Z,5.83
2023-04-26T04:20:15.169Z,3.43
2023-04-26T04:22:41.914Z,3.60
2023-04-26T04:25:10.784Z,3.67
2023-04-26T04:27:38.816Z,3.80
2023-04-26T04:30:07.918Z,3.43
2023-04-26T04:32:35.648Z,2.93
2023-04-26T04:35:02.763Z,2.43
2023-04-26T04:37:29.604Z,3.73
2023-04-26T04:39:56.321Z,2.33
2023-04-26T04:42:23.654Z,2.43
2023-04-26T04:44:50.863Z,2.07
2023-04-26T04:47:17.962Z,2.67
2023-04-26T04:49:45.160Z,2.17
2023-04-26T04:52:12.191Z,2.13
2023-04-26T04:54:38.927Z,1.97
2023-04-26T04:57:06.874Z,2.20
2023-04-26T04:59:33.597Z,2.20
2023-04-26T05:02:00.482Z,3.50
2023-04-26T05:04:27.529Z,2.10
2023-04-26T05:06:54.573Z,3.83
2023-04-26T05:09:21.760Z,1.80
2023-04-26T05:11:48.447Z,2.20
2023-04-26T05:14:15.247Z,2.10
2023-04-26T05:16:42.169Z,2.00
2023-04-26T05:19:09.663Z,2.07
2023-04-26T05:21:36.683Z,2.10
2023-04-26T05:24:04.498Z,2.73
2023-04-26T05:26:31.235Z,4.47
2023-04-26T05:28:57.911Z,2.47
2023-04-26T05:31:24.855Z,2.20
2023-04-26T05:33:51.844Z,2.03
2023-04-26T05:36:18.942Z,3.53
2023-04-26T05:38:45.722Z,2.73
2023-04-26T05:41:12.372Z,2.43
2023-04-26T05:43:39.230Z,2.00
2023-04-26T05:46:06.325Z,2.00
2023-04-26T05:48:33.125Z,1.80
2023-04-26T05:50:59.859Z,2.43
2023-04-26T05:53:26.518Z,1.83
2023-04-26T05:55:53.269Z,3.43
2023-04-26T05:58:20.001Z,2.20
2023-04-26T06:00:46.840Z,2.20
2023-04-26T06:03:13.881Z,1.87
2023-04-26T06:05:41.524Z,2.00
2023-04-26T06:08:08.541Z,2.20
2023-04-26T06:10:36.671Z,2.77
2023-04-26T06:13:04.496Z,1.67
2023-04-26T06:15:32.090Z,3.33
2023-04-26T06:17:58.814Z,1.87
2023-04-26T06:20:26.129Z,2.10
2023-04-26T06:22:52.773Z,1.83
2023-04-26T06:25:19.511Z,3.17
2023-04-26T06:27:46.225Z,2.07
2023-04-26T06:30:13.348Z,1.77
2023-04-26T06:32:41.723Z,2.73
2023-04-26T06:35:09.358Z,2.83
2023-04-26T06:37:37.837Z,1.80
2023-04-26T06:40:05.568Z,1.70
2023-04-26T06:42:32.310Z,1.93
2023-04-26T06:44:59.457Z,1.93
2023-04-26T06:47:26.157Z,1.83
2023-04-26T06:49:52.936Z,2.37
2023-04-26T06:52:21.510Z,1.80
2023-04-26T06:54:56.678Z,1.70
2023-04-26T06:57:24.190Z,1.67
2023-04-26T06:59:51.526Z,1.50
2023-04-26T07:02:18.516Z,1.50
2023-04-26T07:04:45.747Z,1.60
2023-04-26T07:07:13.772Z,1.60
2023-04-26T07:09:41.184Z,2.60
2023-04-26T07:12:08.139Z,2.00
2023-04-26T07:14:37.282Z,2.13
2023-04-26T07:17:05.753Z,1.93
2023-04-26T07:19:32.588Z,1.40
2023-04-26T07:21:59.273Z,1.47
2023-04-26T07:24:26.018Z,1.50
2023-04-26T07:26:53.053Z,1.97
2023-04-26T07:29:19.835Z,3.30
2023-04-26T07:31:46.881Z,2.43
2023-04-26T07:34:13.822Z,1.73
2023-04-26T07:36:40.553Z,3.50
2023-04-26T07:39:10.104Z,1.57
2023-04-26T07:41:36.821Z,1.50
2023-04-26T07:44:04.082Z,1.60
2023-04-26T07:46:30.903Z,2.00
2023-04-26T07:48:57.733Z,3.37
2023-04-26T07:51:24.756Z,1.60
2023-04-26T07:53:51.657Z,1.40
2023-04-26T07:56:18.801Z,1.90
2023-04-26T07:58:45.438Z,2.23
2023-04-26T08:01:13.694Z,1.90
2023-04-26T08:03:41.391Z,1.83
2023-04-26T08:06:09.126Z,1.63
2023-04-26T08:08:43.024Z,2.23
2023-04-26T08:11:12.855Z,1.90
2023-04-26T08:13:39.463Z,1.52
2023-04-26T08:16:07.026Z,3.23
2023-04-26T08:18:33.875Z,1.57
2023-04-26T08:21:00.944Z,1.93
2023-04-26T08:23:28.622Z,1.70
2023-04-26T08:25:55.550Z,1.70
2023-04-26T08:28:22.280Z,1.63
2023-04-26T08:30:49.416Z,1.80
2023-04-26T08:33:18.219Z,2.73
2023-04-26T08:35:45.139Z,2.70
2023-04-26T08:38:11.863Z,1.80
2023-04-26T08:40:38.741Z,1.93
2023-04-26T08:43:05.887Z,1.50
2023-04-26T08:45:37.169Z,1.60
2023-04-26T08:48:07.254Z,1.60
2023-04-26T08:50:34.712Z,2.92
2023-04-26T08:53:01.576Z,1.73
2023-04-26T08:55:28.643Z,1.80
2023-04-26T08:57:56.225Z,1.97
2023-04-26T09:00:23.791Z,1.80
2023-04-26T09:02:53.212Z,1.60
2023-04-26T09:05:24.931Z,1.60
2023-04-26T09:07:56.697Z,1.40
2023-04-26T09:10:23.669Z,1.63
2023-04-26T09:12:54.043Z,1.60
2023-04-26T09:15:22.975Z,1.42
2023-04-26T09:17:53.071Z,4.90
2023-04-26T09:20:30.233Z,3.78
2023-04-26T09:23:08.451Z,1.47
2023-04-26T09:25:35.884Z,1.77
2023-04-26T09:28:04.264Z,1.40
2023-04-26T09:30:38.242Z,1.23
2023-04-26T09:33:06.935Z,1.40
2023-04-26T09:35:39.119Z,4.43
2023-04-26T09:38:12.086Z,1.33
2023-04-26T09:40:50.841Z,1.67
2023-04-26T09:43:22.270Z,1.37
2023-04-26T09:45:57.105Z,1.77
2023-04-26T09:48:31.574Z,1.57
2023-04-26T09:51:09.099Z,1.67
2023-04-26T09:53:42.858Z,1.50
2023-04-26T09:56:16.365Z,1.30
2023-04-26T09:59:00.923Z,1.40
2023-04-26T10:01:30.218Z,4.60
2023-04-26T10:03:58.447Z,1.83
2023-04-26T10:06:45.713Z,1.47
2023-04-26T10:09:55.796Z,1.37
2023-04-26T10:12:22.822Z,1.40
2023-04-26T10:14:49.570Z,1.60
2023-04-26T10:17:25.858Z,2.40
2023-04-26T10:20:00.097Z,1.20
2023-04-26T10:22:31.606Z,1.83
2023-04-26T10:24:58.442Z,1.20
2023-04-26T10:27:43.548Z,1.23
2023-04-26T10:30:14.712Z,1.20
2023-04-26T10:32:57.497Z,1.30
2023-04-26T10:35:26.903Z,1.10
2023-04-26T10:37:59.702Z,1.80
2023-04-26T10:40:31.759Z,2.10
2023-04-26T10:43:28.096Z,1.40
2023-04-26T10:45:57.118Z,1.53
2023-04-26T10:48:31.716Z,4.23
2023-04-26T10:51:01.769Z,1.70
2023-04-26T10:53:31.943Z,1.85
2023-04-26T10:55:59.253Z,1.30
2023-04-26T10:58:33.833Z,2.93
2023-04-26T11:01:06.580Z,1.27
2023-04-26T11:03:33.729Z,1.53
2023-04-26T11:06:00.956Z,1.30
2023-04-26T11:08:30.749Z,1.70
2023-04-26T11:10:58.813Z,1.35
2023-04-26T11:13:25.896Z,1.53
2023-04-26T11:15:54.212Z,1.03
2023-04-26T11:18:22.020Z,1.30
2023-04-26T11:20:48.803Z,1.80
2023-04-26T11:23:15.889Z,2.30
2023-04-26T11:25:42.706Z,1.40
2023-04-26T11:28:09.584Z,1.50
2023-04-26T11:30:36.804Z,1.37
2023-04-26T11:33:07.050Z,1.20
2023-04-26T11:35:36.211Z,1.30
2023-04-26T11:38:05.572Z,1.83
2023-04-26T11:40:33.454Z,7.30
2023-04-26T11:43:01.912Z,1.63
2023-04-26T11:45:28.893Z,1.40
2023-04-26T11:47:56.702Z,1.47
2023-04-26T11:50:27.104Z,1.33
2023-04-26T11:52:58.449Z,1.48
2023-04-26T11:55:29.253Z,1.40
2023-04-26T11:57:56.888Z,1.33
2023-04-26T12:00:24.798Z,6.20
2023-04-26T12:02:52.987Z,1.43
2023-04-26T12:05:31.331Z,1.37
2023-04-26T12:08:00.143Z,1.50
2023-04-26T12:10:28.604Z,2.07
2023-04-26T12:12:59.104Z,1.53
2023-04-26T12:15:30.611Z,1.45
2023-04-26T12:17:59.126Z,1.63
2023-04-26T12:20:31.688Z,2.40
2023-04-26T12:23:06.395Z,1.33
2023-04-26T12:25:36.023Z,2.30
2023-04-26T12:28:12.525Z,1.37
2023-04-26T12:30:40.995Z,1.50
2023-04-26T12:33:16.572Z,1.20
2023-04-26T12:35:44.618Z,1.60
2023-04-26T12:38:12.561Z,1.50
2023-04-26T12:40:39.645Z,5.47
2023-04-26T12:43:06.948Z,1.50
2023-04-26T12:45:34.267Z,1.50
2023-04-26T12:48:01.642Z,2.43
2023-04-26T12:50:28.702Z,2.33
2023-04-26T12:52:55.401Z,2.30
2023-04-26T12:55:23.129Z,1.30
2023-04-26T12:57:49.897Z,2.93
2023-04-26T13:00:21.988Z,1.57
2023-04-26T13:02:49.129Z,2.50
2023-04-26T13:05:15.965Z,1.20
2023-04-26T13:07:44.112Z,1.33
2023-04-26T13:10:13.199Z,1.77
2023-04-26T13:12:40.783Z,1.40
2023-04-26T13:15:08.605Z,1.73
2023-04-26T13:17:37.545Z,1.43
2023-04-26T13:20:06.515Z,1.37
2023-04-26T13:22:33.852Z,1.60
2023-04-26T13:25:01.778Z,1.20
2023-04-26T13:27:30.657Z,1.93
2023-04-26T13:29:58.757Z,2.10
2023-04-26T13:32:25.777Z,1.60
2023-04-26T13:34:53.612Z,1.40
2023-04-26T13:37:21.556Z,1.37
2023-04-26T13:39:48.370Z,3.43
2023-04-26T13:42:16.629Z,1.30
2023-04-26T13:44:43.460Z,1.03
2023-04-26T13:47:10.579Z,1.20
2023-04-26T13:49:39.534Z,1.57
2023-04-26T13:52:06.200Z,1.40
2023-04-26T13:54:33.002Z,1.60
2023-04-26T13:56:59.741Z,1.50
2023-04-26T13:59:26.960Z,1.50
2023-04-26T14:01:56.894Z,1.47
2023-04-26T14:04:25.461Z,2.07
2023-04-26T14:06:52.965Z,1.30
2023-04-26T14:09:19.894Z,1.40
2023-04-26T14:11:49.442Z,2.03
2023-04-26T14:14:18.543Z,1.37
2023-04-26T14:16:45.581Z,1.30
2023-04-26T14:19:12.490Z,1.30
2023-04-26T14:21:39.202Z,2.43
2023-04-26T14:24:06.674Z,1.27
2023-04-26T14:26:34.461Z,1.30
2023-04-26T14:29:01.748Z,1.20
2023-04-26T14:31:30.438Z,1.30
2023-04-26T14:33:57.662Z,2.10
2023-04-26T14:36:24.597Z,1.47
2023-04-26T14:38:51.381Z,1.90
2023-04-26T14:41:19.339Z,1.73
2023-04-26T14:43:50.979Z,1.30
2023-04-26T14:46:17.798Z,1.30
2023-04-26T14:48:45.250Z,1.60
2023-04-26T14:51:12.054Z,6.33
2023-04-26T14:53:39.770Z,1.27
2023-04-26T14:56:07.826Z,1.80
2023-04-26T14:58:34.759Z,1.40
2023-04-26T15:01:02.726Z,1.60
2023-04-26T15:03:30.112Z,1.90
2023-04-26T15:05:57.228Z,1.40
2023-04-26T15:08:24.286Z,2.40
2023-04-26T15:10:51.697Z,1.67
2023-04-26T15:13:18.815Z,6.37
2023-04-26T15:15:46.597Z,1.63
2023-04-26T15:18:13.435Z,2.70
2023-04-26T15:20:41.246Z,3.20
2023-04-26T15:23:08.648Z,1.87
2023-04-26T15:25:37.923Z,2.47
2023-04-26T15:28:05.003Z,1.70
2023-04-26T15:30:31.802Z,1.10
2023-04-26T15:32:59.048Z,1.50
2023-04-26T15:35:26.046Z,1.63
2023-04-26T15:37:54.196Z,1.50
2023-04-26T15:40:21.946Z,1.50
2023-04-26T15:42:49.438Z,1.60
2023-04-26T15:45:16.418Z,1.43
2023-04-26T15:47:43.330Z,2.00
2023-04-26T15:50:10.733Z,2.30
2023-04-26T15:52:39.166Z,1.37
2023-04-26T15:55:10.110Z,1.30
2023-04-26T15:57:37.122Z,2.08
2023-04-26T16:00:06.088Z,1.80
2023-04-26T16:02:32.987Z,2.20
2023-04-26T16:04:59.970Z,3.03
2023-04-26T16:07:26.803Z,1.73
2023-04-26T16:09:53.535Z,1.90
2023-04-26T16:12:20.405Z,2.40
2023-04-26T16:14:53.573Z,1.67
2023-04-26T16:17:21.417Z,1.57
2023-04-26T16:19:48.691Z,1.80
2023-04-26T16:22:15.455Z,1.60
2023-04-26T16:24:43.140Z,1.63
2023-04-26T16:27:10.023Z,1.60
2023-04-26T16:29:36.730Z,2.27
2023-04-26T16:32:03.581Z,1.50
2023-04-26T16:34:30.437Z,1.83
2023-04-26T16:36:57.106Z,1.90
2023-04-26T16:39:23.790Z,1.60
2023-04-26T16:41:53.457Z,1.63
2023-04-26T16:44:20.078Z,2.63
2023-04-26T16:46:47.057Z,1.70
2023-04-26T16:49:13.740Z,2.10
2023-04-26T16:51:43.591Z,1.97
2023-04-26T16:54:10.805Z,2.20
2023-04-26T16:56:37.519Z,2.30
2023-04-26T16:59:04.650Z,2.03
2023-04-26T17:01:32.122Z,1.83
2023-04-26T17:03:58.999Z,3.73
2023-04-26T17:06:29.173Z,1.80
2023-04-26T17:08:55.994Z,1.60
2023-04-26T17:11:23.100Z,1.90
2023-04-26T17:13:49.741Z,2.47
2023-04-26T17:16:16.434Z,1.80
2023-04-26T17:18:43.814Z,2.23
2023-04-26T17:21:10.510Z,2.50
2023-04-26T17:23:37.165Z,1.70
2023-04-26T17:26:04.650Z,1.90
2023-04-26T17:28:33.416Z,2.07
2023-04-26T17:31:00.361Z,3.60
2023-04-26T17:33:27.355Z,4.83
2023-04-26T17:35:54.031Z,8.20
2023-04-26T17:38:20.863Z,14.00
2023-04-26T17:40:52.587Z,11.93
2023-04-26T17:43:19.901Z,15.27
2023-04-26T17:45:46.841Z,16.33
2023-04-26T17:48:13.658Z,21.70
2023-04-26T17:50:40.498Z,10.60
2023-04-26T17:53:07.449Z,7.37
2023-04-26T17:55:35.346Z,4.03
2023-04-26T17:58:03.082Z,5.10
2023-04-26T18:00:29.859Z,4.43
2023-04-26T18:02:58.120Z,3.57
2023-04-26T18:05:25.400Z,3.77
2023-04-26T18:07:52.232Z,8.10
2023-04-26T18:10:19.230Z,28.23
2023-04-26T18:12:45.992Z,26.33
2023-04-26T18:15:13.885Z,24.50
2023-04-26T18:17:41.379Z,13.60
2023-04-26T18:20:08.715Z,10.40
2023-04-26T18:22:35.574Z,27.43
2023-04-26T18:25:02.293Z,35.53
2023-04-26T18:27:29.056Z,93.57
2023-04-26T18:29:55.900Z,142.13
2023-04-26T18:32:22.867Z,100.27
2023-04-26T18:34:49.887Z,20.80
2023-04-26T18:37:20.325Z,26.43
2023-04-26T18:39:47.215Z,13.75
2023-04-26T18:42:14.081Z,15.37
2023-04-26T18:44:41.584Z,26.40
2023-04-26T18:47:08.275Z,32.77
2023-04-26T18:49:35.272Z,17.53
2023-04-26T18:52:02.153Z,11.33
2023-04-26T18:54:31.131Z,7.37
2023-04-26T18:57:02.653Z,6.93
2023-04-26T18:59:30.129Z,6.13
2023-04-26T19:01:57.264Z,5.77
2023-04-26T19:04:24.498Z,9.07
2023-04-26T19:06:51.359Z,6.47
2023-04-26T19:09:18.146Z,5.67
2023-04-26T19:11:45.078Z,6.70
2023-04-26T19:14:11.820Z,5.87
2023-04-26T19:16:38.700Z,6.00
2023-04-26T19:19:06.157Z,5.97
2023-04-26T19:21:33.413Z,7.67
2023-04-26T19:24:00.126Z,7.27
2023-04-26T19:26:27.001Z,6.73
2023-04-26T19:28:55.878Z,6.67
2023-04-26T19:31:23.053Z,7.90
2023-04-26T19:33:52.324Z,7.23
2023-04-26T19:36:19.021Z,9.17
2023-04-26T19:38:45.836Z,7.53
2023-04-26T19:41:13.365Z,11.20
2023-04-26T19:43:39.974Z,10.93
2023-04-26T19:46:13.886Z,11.40
2023-04-26T19:48:41.115Z,16.90
2023-04-26T19:51:07.852Z,18.60
2023-04-26T19:53:35.486Z,24.80
2023-04-26T19:56:02.205Z,22.63
2023-04-26T19:58:28.834Z,17.43
2023-04-26T20:00:55.721Z,16.50
2023-04-26T20:03:22.573Z,15.17
2023-04-26T20:05:49.720Z,13.33
2023-04-26T20:08:16.953Z,14.03
2023-04-26T20:10:43.814Z,14.47
2023-04-26T20:13:10.938Z,147.40
2023-04-26T20:15:37.653Z,71.83
2023-04-26T20:18:04.504Z,52.77
2023-04-26T20:20:31.343Z,28.33
2023-04-26T20:22:58.147Z,23.87
2023-04-26T20:25:25.083Z,22.47
2023-04-26T20:27:51.733Z,28.17
2023-04-26T20:30:18.411Z,24.60
2023-04-26T20:32:45.270Z,23.50
2023-04-26T20:35:13.914Z,21.53
2023-04-26T20:37:40.839Z,17.83
2023-04-26T20:40:08.268Z,11.50
2023-04-26T20:42:35.015Z,13.83
2023-04-26T20:45:02.482Z,12.80
2023-04-26T20:47:29.638Z,11.10
2023-04-26T20:49:56.332Z,15.63
2023-04-26T20:52:23.030Z,18.67
2023-04-26T20:54:49.801Z,17.03
2023-04-26T20:57:16.956Z,15.77
2023-04-26T20:59:43.709Z,18.53
2023-04-26T21:02:10.639Z,23.67
2023-04-26T21:04:39.667Z,15.47
2023-04-26T21:07:06.478Z,13.77
2023-04-26T21:09:39.376Z,11.63
2023-04-26T21:12:06.867Z,12.23
2023-04-26T21:14:33.632Z,13.03
2023-04-26T21:17:01.624Z,10.80
2023-04-26T21:19:28.387Z,12.17
2023-04-26T21:21:55.209Z,16.90
2023-04-26T21:24:22.158Z,14.97
2023-04-26T21:26:48.847Z,14.20
2023-04-26T21:29:15.558Z,13.50
2023-04-26T21:31:42.497Z,12.03
2023-04-26T21:34:09.656Z,17.17
2023-04-26T21:36:36.522Z,17.40
2023-04-26T21:39:03.811Z,15.77
2023-04-26T21:41:30.504Z,15.80
2023-04-26T21:43:59.041Z,13.63
2023-04-26T21:46:26.453Z,13.40
2023-04-26T21:48:53.162Z,11.07
2023-04-26T21:51:23.013Z,15.80
2023-04-26T21:53:50.715Z,16.33
2023-04-26T21:56:17.465Z,12.17
2023-04-26T21:58:44.378Z,12.70
2023-04-26T22:01:15.451Z,14.60
2023-04-26T22:03:42.725Z,16.23
2023-04-26T22:06:10.243Z,15.93
2023-04-26T22:08:37.083Z,14.07
2023-04-26T22:11:04.054Z,14.13
2023-04-26T22:13:31.575Z,11.73
2023-04-26T22:15:58.596Z,14.17
2023-04-26T22:18:26.518Z,13.10
2023-04-26T22:20:53.906Z,15.17
2023-04-26T22:23:21.118Z,11.40
2023-04-26T22:25:47.844Z,10.67
2023-04-26T22:28:15.626Z,11.57
2023-04-26T22:30:42.385Z,9.73
2023-04-26T22:33:11.124Z,10.50
2023-04-26T22:35:38.154Z,9.63
2023-04-26T22:38:05.023Z,10.80
2023-04-26T22:40:32.909Z,10.40
2023-04-26T22:42:59.661Z,17.00
2023-04-26T22:45:26.487Z,15.80
2023-04-26T22:47:54.579Z,15.50
2023-04-26T22:50:21.794Z,10.83
2023-04-26T22:52:49.884Z,10.60
2023-04-26T22:55:17.502Z,10.43
2023-04-26T22:57:44.222Z,11.67
2023-04-26T23:00:12.829Z,9.93
2023-04-26T23:02:39.816Z,9.47
2023-04-26T23:05:10.132Z,10.80
2023-04-26T23:07:38.626Z,9.63
2023-04-26T23:10:07.662Z,9.50
2023-04-26T23:12:36.239Z,7.30
2023-04-26T23:15:05.409Z,11.70
2023-04-26T23:17:34.296Z,10.30
2023-04-26T23:20:01.260Z,11.37
2023-04-26T23:22:28.530Z,9.80
2023-04-26T23:24:55.633Z,7.30
2023-04-26T23:27:22.348Z,12.40
2023-04-26T23:29:51.267Z,8.00
2023-04-26T23:32:18.021Z,6.63
2023-04-26T23:34:44.796Z,7.60
2023-04-26T23:37:11.543Z,8.93
2023-04-26T23:39:38.457Z,9.30
2023-04-26T23:42:05.458Z,7.70
2023-04-26T23:44:32.156Z,9.23
2023-04-26T23:46:59.099Z,10.13
2023-04-26T23:49:25.940Z,9.77
2023-04-26T23:51:53.762Z,12.27
2023-04-26T23:54:20.652Z,10.93
2023-04-26T23:56:47.419Z,11.37
2023-04-26T23:59:14.827Z,10.83
